Time,TemperatureF,DewpointF,PressureIn,WindDirection,WindDirectionDegrees,WindSpeedMPH,WindSpeedGustMPH,Humidity,HourlyPrecipIn,Conditions,Clouds,dailyrainin,SolarRadiationWatts/m^2,SoftwareType,DateUTC
2013-05-25 00:01:00,62.0,56.0,-100.00,North,2,11.0,22.0,82,0.00,,,0.00,0.000000,,2013-05-25 10:01:00,
2013-05-25 00:23:00,62.0,56.0,-100.00,North,2,11.0,22.0,82,0.00,,,0.00,0.000000,,2013-05-25 10:23:00,
2013-05-25 00:33:00,62.0,56.0,-100.00,North,2,11.0,22.0,82,0.00,,,0.00,0.000000,,2013-05-25 10:33:00,
2013-05-25 00:42:00,62.0,56.0,-100.00,North,2,11.0,22.0,82,0.00,,,0.00,0.000000,,2013-05-25 10:42:00,
2013-05-25 00:52:00,62.0,56.0,-100.00,North,2,11.0,22.0,82,0.00,,,0.00,0.000000,,2013-05-25 10:52:00,
2013-05-25 01:01:00,63.0,57.0,-100.00,NNE,18,15.0,25.0,81,0.00,,,-99.99,0.000000,,2013-05-25 11:01:00,
2013-05-25 01:22:00,63.0,57.0,-100.00,NNE,18,15.0,25.0,81,0.00,,,-99.99,0.000000,,2013-05-25 11:22:00,
2013-05-25 01:32:00,63.0,57.0,-100.00,NNE,18,15.0,25.0,81,0.00,,,-99.99,0.000000,,2013-05-25 11:32:00,
2013-05-25 01:42:00,63.0,57.0,-100.00,NNE,18,15.0,25.0,81,0.00,,,-99.99,0.000000,,2013-05-25 11:42:00,
2013-05-25 01:52:00,63.0,57.0,-100.00,NNE,18,15.0,25.0,81,0.00,,,-99.99,0.000000,,2013-05-25 11:52:00,
2013-05-25 02:01:00,62.0,56.0,-100.00,NNE,17,19.0,26.0,81,0.00,,,0.00,0.000000,,2013-05-25 12:01:00,
2013-05-25 02:22:00,62.0,56.0,-100.00,NNE,17,19.0,26.0,81,0.00,,,0.00,0.000000,,2013-05-25 12:22:00,
2013-05-25 02:32:00,62.0,56.0,-100.00,NNE,17,19.0,26.0,81,0.00,,,0.00,0.000000,,2013-05-25 12:32:00,
2013-05-25 02:42:00,62.0,56.0,-100.00,NNE,17,19.0,26.0,81,0.00,,,0.00,0.000000,,2013-05-25 12:42:00,
2013-05-25 02:52:00,62.0,56.0,-100.00,NNE,17,19.0,26.0,81,0.00,,,0.00,0.000000,,2013-05-25 12:52:00,
2013-05-25 03:01:00,62.0,57.0,-100.00,North,5,12.0,25.0,83,0.00,,,0.00,0.000000,,2013-05-25 13:01:00,
2013-05-25 03:22:00,62.0,57.0,-100.00,North,5,12.0,25.0,83,0.00,,,0.00,0.000000,,2013-05-25 13:22:00,
2013-05-25 03:32:00,62.0,57.0,-100.00,North,5,12.0,25.0,83,0.00,,,0.00,0.000000,,2013-05-25 13:32:00,
2013-05-25 03:42:00,62.0,57.0,-100.00,North,5,12.0,25.0,83,0.00,,,0.00,0.000000,,2013-05-25 13:42:00,
2013-05-25 03:52:00,62.0,57.0,-100.00,North,5,12.0,25.0,83,0.00,,,0.00,0.000000,,2013-05-25 13:52:00,
2013-05-25 04:01:00,63.0,57.0,-100.00,North,11,22.0,30.0,82,0.00,,,0.00,0.000000,,2013-05-25 14:01:00,
2013-05-25 04:22:00,63.0,57.0,-100.00,North,11,22.0,30.0,82,0.00,,,0.00,0.000000,,2013-05-25 14:22:00,
2013-05-25 04:32:00,63.0,57.0,-100.00,North,11,22.0,30.0,82,0.00,,,0.00,0.000000,,2013-05-25 14:32:00,
2013-05-25 04:42:00,63.0,57.0,-100.00,North,11,22.0,30.0,82,0.00,,,0.00,0.000000,,2013-05-25 14:42:00,
2013-05-25 04:52:00,63.0,57.0,-100.00,North,11,22.0,30.0,82,0.00,,,0.00,0.000000,,2013-05-25 14:52:00,
2013-05-25 05:01:00,63.0,57.0,-100.00,North,11,14.0,31.0,81,0.00,,,0.00,0.000000,,2013-05-25 15:01:00,
2013-05-25 05:22:00,63.0,57.0,-100.00,North,11,14.0,31.0,81,0.00,,,0.00,0.000000,,2013-05-25 15:22:00,
2013-05-25 05:33:00,63.0,57.0,-100.00,North,11,14.0,31.0,81,0.00,,,0.00,0.000000,,2013-05-25 15:33:00,
2013-05-25 05:43:00,63.0,57.0,-100.00,North,11,14.0,31.0,81,0.00,,,0.00,0.000000,,2013-05-25 15:43:00,
2013-05-25 05:53:00,63.0,57.0,-100.00,North,11,14.0,31.0,81,0.00,,,0.00,0.000000,,2013-05-25 15:53:00,
2013-05-25 06:01:00,63.0,55.0,-100.00,NNE,14,13.0,21.0,76,0.00,,,0.00,5.000000,,2013-05-25 16:01:00,
2013-05-25 06:23:00,63.0,55.0,-100.00,NNE,14,13.0,21.0,76,0.00,,,0.00,5.000000,,2013-05-25 16:23:00,
2013-05-25 06:33:00,63.0,55.0,-100.00,NNE,14,13.0,21.0,76,0.00,,,0.00,5.000000,,2013-05-25 16:33:00,
2013-05-25 06:42:00,63.0,55.0,-100.00,NNE,14,13.0,21.0,76,0.00,,,0.00,5.000000,,2013-05-25 16:42:00,
2013-05-25 06:52:00,63.0,55.0,-100.00,NNE,14,13.0,21.0,76,0.00,,,0.00,5.000000,,2013-05-25 16:52:00,
2013-05-25 07:01:00,68.0,56.0,-100.00,North,5,14.0,23.0,65,0.00,,,0.00,113.000000,,2013-05-25 17:01:00,
2013-05-25 07:22:00,68.0,56.0,-100.00,North,5,14.0,23.0,65,0.00,,,0.00,113.000000,,2013-05-25 17:22:00,
2013-05-25 07:33:00,68.0,56.0,-100.00,North,5,14.0,23.0,65,0.00,,,0.00,113.000000,,2013-05-25 17:33:00,
2013-05-25 07:42:00,68.0,56.0,-100.00,North,5,14.0,23.0,65,0.00,,,0.00,113.000000,,2013-05-25 17:42:00,
2013-05-25 07:52:00,68.0,56.0,-100.00,North,5,14.0,23.0,65,0.00,,,0.00,113.000000,,2013-05-25 17:52:00,
2013-05-25 08:01:00,72.0,57.0,-100.00,North,7,17.0,26.0,59,0.00,,,0.00,331.000000,,2013-05-25 18:01:00,
2013-05-25 08:22:00,72.0,57.0,-100.00,North,7,17.0,26.0,59,0.00,,,0.00,331.000000,,2013-05-25 18:22:00,
2013-05-25 08:32:00,72.0,57.0,-100.00,North,7,17.0,26.0,59,0.00,,,0.00,331.000000,,2013-05-25 18:32:00,
2013-05-25 08:42:00,72.0,57.0,-100.00,North,7,17.0,26.0,59,0.00,,,0.00,331.000000,,2013-05-25 18:42:00,
2013-05-25 08:52:00,72.0,57.0,-100.00,North,7,17.0,26.0,59,0.00,,,0.00,331.000000,,2013-05-25 18:52:00,
2013-05-25 09:01:00,73.0,57.0,-100.00,NNE,25,19.0,26.0,58,0.00,,,0.00,533.000000,,2013-05-25 19:01:00,
2013-05-25 09:22:00,73.0,57.0,-100.00,NNE,25,19.0,26.0,58,0.00,,,0.00,533.000000,,2013-05-25 19:22:00,
2013-05-25 09:32:00,73.0,57.0,-100.00,NNE,25,19.0,26.0,58,0.00,,,0.00,533.000000,,2013-05-25 19:32:00,
2013-05-25 09:42:00,73.0,57.0,-100.00,NNE,25,19.0,26.0,58,0.00,,,0.00,533.000000,,2013-05-25 19:42:00,
2013-05-25 09:52:00,73.0,57.0,-100.00,NNE,25,19.0,26.0,58,0.00,,,0.00,533.000000,,2013-05-25 19:52:00,
2013-05-25 10:01:00,73.0,58.0,-100.00,NNE,17,17.0,26.0,59,0.00,,,0.00,470.000000,,2013-05-25 20:01:00,
2013-05-25 10:22:00,73.0,58.0,-100.00,NNE,17,17.0,26.0,59,0.00,,,0.00,470.000000,,2013-05-25 20:22:00,
2013-05-25 10:32:00,73.0,58.0,-100.00,NNE,17,17.0,26.0,59,0.00,,,0.00,470.000000,,2013-05-25 20:32:00,
2013-05-25 10:42:00,73.0,58.0,-100.00,NNE,17,17.0,26.0,59,0.00,,,0.00,470.000000,,2013-05-25 20:42:00,
2013-05-25 10:52:00,73.0,58.0,-100.00,NNE,17,17.0,26.0,59,0.00,,,0.00,470.000000,,2013-05-25 20:52:00,
2013-05-25 11:01:00,74.0,59.0,-100.00,NNE,19,16.0,25.0,59,0.00,,,0.00,704.000000,,2013-05-25 21:01:00,
2013-05-25 11:22:00,74.0,59.0,-100.00,NNE,19,16.0,25.0,59,0.00,,,0.00,704.000000,,2013-05-25 21:22:00,
2013-05-25 11:33:00,74.0,59.0,-100.00,NNE,19,16.0,25.0,59,0.00,,,0.00,704.000000,,2013-05-25 21:33:00,
2013-05-25 11:43:00,74.0,59.0,-100.00,NNE,19,16.0,25.0,59,0.00,,,0.00,704.000000,,2013-05-25 21:43:00,
2013-05-25 11:53:00,74.0,59.0,-100.00,NNE,19,16.0,25.0,59,0.00,,,0.00,704.000000,,2013-05-25 21:53:00,
2013-05-25 12:01:00,76.0,59.0,-100.00,NNE,20,20.0,31.0,55,0.00,,,0.00,926.000000,,2013-05-25 22:01:00,
2013-05-25 12:23:00,76.0,59.0,-100.00,NNE,20,20.0,31.0,55,0.00,,,0.00,926.000000,,2013-05-25 22:23:00,
2013-05-25 12:33:00,76.0,59.0,-100.00,NNE,20,20.0,31.0,55,0.00,,,0.00,926.000000,,2013-05-25 22:33:00,
2013-05-25 12:42:00,76.0,59.0,-100.00,NNE,20,20.0,31.0,55,0.00,,,0.00,926.000000,,2013-05-25 22:42:00,
2013-05-25 12:52:00,76.0,59.0,-100.00,NNE,20,20.0,31.0,55,0.00,,,0.00,926.000000,,2013-05-25 22:52:00,
2013-05-25 13:01:00,77.0,59.0,-100.00,NE,37,16.0,27.0,53,0.00,,,0.00,971.000000,,2013-05-25 23:01:00,
2013-05-25 13:22:00,77.0,59.0,-100.00,NE,37,16.0,27.0,53,0.00,,,0.00,971.000000,,2013-05-25 23:22:00,
2013-05-25 13:32:00,77.0,59.0,-100.00,NE,37,16.0,27.0,53,0.00,,,0.00,971.000000,,2013-05-25 23:32:00,
2013-05-25 13:42:00,77.0,59.0,-100.00,NE,37,16.0,27.0,53,0.00,,,0.00,971.000000,,2013-05-25 23:42:00,
2013-05-25 13:52:00,77.0,59.0,-100.00,NE,37,16.0,27.0,53,0.00,,,0.00,971.000000,,2013-05-25 23:52:00,
2013-05-25 14:01:00,76.0,61.0,-100.00,NNE,29,18.0,29.0,59,0.00,,,0.00,891.000000,,2013-05-26 00:01:00,
2013-05-25 14:22:00,76.0,61.0,-100.00,NNE,29,18.0,29.0,59,0.00,,,0.00,891.000000,,2013-05-26 00:22:00,
2013-05-25 14:32:00,76.0,61.0,-100.00,NNE,29,18.0,29.0,59,0.00,,,0.00,891.000000,,2013-05-26 00:32:00,
2013-05-25 14:42:00,76.0,61.0,-100.00,NNE,29,18.0,29.0,59,0.00,,,0.00,891.000000,,2013-05-26 00:42:00,
2013-05-25 14:52:00,76.0,61.0,-100.00,NNE,29,18.0,29.0,59,0.00,,,0.00,891.000000,,2013-05-26 00:52:00,
2013-05-25 15:01:00,74.0,61.0,-100.00,NNE,27,20.0,30.0,63,0.00,,,0.00,796.000000,,2013-05-26 01:01:00,
2013-05-25 15:21:00,74.0,61.0,-100.00,NNE,27,20.0,30.0,63,0.00,,,0.00,796.000000,,2013-05-26 01:21:00,
2013-05-25 15:32:00,74.0,61.0,-100.00,NNE,27,20.0,30.0,63,0.00,,,0.00,796.000000,,2013-05-26 01:32:00,
2013-05-25 15:42:00,74.0,61.0,-100.00,NNE,27,20.0,30.0,63,0.00,,,0.00,796.000000,,2013-05-26 01:42:00,
2013-05-25 15:52:00,74.0,61.0,-100.00,NNE,27,20.0,30.0,63,0.00,,,0.00,796.000000,,2013-05-26 01:52:00,
2013-05-25 16:01:00,72.0,61.0,-100.00,NE,37,16.0,28.0,68,0.00,,,0.00,564.000000,,2013-05-26 02:01:00,
2013-05-25 16:21:00,72.0,61.0,-100.00,NE,37,16.0,28.0,68,0.00,,,0.00,564.000000,,2013-05-26 02:21:00,
2013-05-25 16:32:00,72.0,61.0,-100.00,NE,37,16.0,28.0,68,0.00,,,0.00,564.000000,,2013-05-26 02:32:00,
2013-05-25 16:42:00,72.0,61.0,-100.00,NE,37,16.0,28.0,68,0.00,,,0.00,564.000000,,2013-05-26 02:42:00,
2013-05-25 16:52:00,72.0,61.0,-100.00,NE,37,16.0,28.0,68,0.00,,,0.00,564.000000,,2013-05-26 02:52:00,
2013-05-25 17:01:00,69.0,62.0,-100.00,NNE,27,14.0,26.0,78,0.00,,,0.00,208.000000,,2013-05-26 03:01:00,
2013-05-25 17:22:00,69.0,62.0,-100.00,NNE,27,14.0,26.0,78,0.00,,,0.00,208.000000,,2013-05-26 03:22:00,
2013-05-25 17:33:00,69.0,62.0,-100.00,NNE,27,14.0,26.0,78,0.00,,,0.00,208.000000,,2013-05-26 03:33:00,
2013-05-25 17:43:00,69.0,62.0,-100.00,NNE,27,14.0,26.0,78,0.00,,,0.00,208.000000,,2013-05-26 03:43:00,
2013-05-25 17:53:00,69.0,62.0,-100.00,NNE,27,14.0,26.0,78,0.00,,,0.00,208.000000,,2013-05-26 03:53:00,
2013-05-25 18:01:00,67.0,62.0,-100.00,NNE,27,15.0,24.0,83,0.00,,,0.00,164.000000,,2013-05-26 04:01:00,
2013-05-25 18:23:00,67.0,62.0,-100.00,NNE,27,15.0,24.0,83,0.00,,,0.00,164.000000,,2013-05-26 04:23:00,
2013-05-25 18:33:00,67.0,62.0,-100.00,NNE,27,15.0,24.0,83,0.00,,,0.00,164.000000,,2013-05-26 04:33:00,
2013-05-25 18:42:00,67.0,62.0,-100.00,NNE,27,15.0,24.0,83,0.00,,,0.00,164.000000,,2013-05-26 04:42:00,
2013-05-25 18:52:00,67.0,62.0,-100.00,NNE,27,15.0,24.0,83,0.00,,,0.00,164.000000,,2013-05-26 04:52:00,
2013-05-25 19:01:00,65.0,62.0,-100.00,NNE,22,13.0,22.0,91,0.00,,,0.00,27.000000,,2013-05-26 05:01:00,
2013-05-25 19:22:00,65.0,62.0,-100.00,NNE,22,13.0,22.0,91,0.00,,,0.00,27.000000,,2013-05-26 05:22:00,
2013-05-25 19:32:00,65.0,62.0,-100.00,NNE,22,13.0,22.0,91,0.00,,,0.00,27.000000,,2013-05-26 05:32:00,
2013-05-25 19:42:00,65.0,62.0,-100.00,NNE,22,13.0,22.0,91,0.00,,,0.00,27.000000,,2013-05-26 05:42:00,
2013-05-25 19:52:00,65.0,62.0,-100.00,NNE,22,13.0,22.0,91,0.00,,,0.00,27.000000,,2013-05-26 05:52:00,
2013-05-25 20:01:00,64.0,62.0,-100.00,NNE,23,13.0,20.0,93,0.00,,,0.00,0.000000,,2013-05-26 06:01:00,
2013-05-25 20:22:00,64.0,62.0,-100.00,NNE,23,13.0,20.0,93,0.00,,,0.00,0.000000,,2013-05-26 06:22:00,
2013-05-25 20:32:00,64.0,62.0,-100.00,NNE,23,13.0,20.0,93,0.00,,,0.00,0.000000,,2013-05-26 06:32:00,
2013-05-25 20:42:00,64.0,62.0,-100.00,NNE,23,13.0,20.0,93,0.00,,,0.00,0.000000,,2013-05-26 06:42:00,
2013-05-25 20:52:00,64.0,62.0,-100.00,NNE,23,13.0,20.0,93,0.00,,,0.00,0.000000,,2013-05-26 06:52:00,
2013-05-25 21:01:00,64.0,61.0,-100.00,NE,47,10.0,23.0,91,0.00,,,0.00,0.000000,,2013-05-26 07:01:00,
2013-05-25 21:22:00,64.0,61.0,-100.00,NE,47,10.0,23.0,91,0.00,,,0.00,0.000000,,2013-05-26 07:22:00,
2013-05-25 21:32:00,64.0,61.0,-100.00,NE,47,10.0,23.0,91,0.00,,,0.00,0.000000,,2013-05-26 07:32:00,
2013-05-25 21:42:00,64.0,61.0,-100.00,NE,47,10.0,23.0,91,0.00,,,0.00,0.000000,,2013-05-26 07:42:00,
2013-05-25 21:52:00,64.0,61.0,-100.00,NE,47,10.0,23.0,91,0.00,,,0.00,0.000000,,2013-05-26 07:52:00,
2013-05-25 22:01:00,64.0,62.0,-100.00,NNE,26,10.0,16.0,92,0.00,,,0.00,0.000000,,2013-05-26 08:01:00,
2013-05-25 22:22:00,64.0,62.0,-100.00,NNE,26,10.0,16.0,92,0.00,,,0.00,0.000000,,2013-05-26 08:22:00,
2013-05-25 22:32:00,64.0,62.0,-100.00,NNE,26,10.0,16.0,92,0.00,,,0.00,0.000000,,2013-05-26 08:32:00,
2013-05-25 22:42:00,64.0,62.0,-100.00,NNE,26,10.0,16.0,92,0.00,,,0.00,0.000000,,2013-05-26 08:42:00,
2013-05-25 22:53:00,64.0,62.0,-100.00,NNE,26,10.0,16.0,92,0.00,,,0.00,0.000000,,2013-05-26 08:53:00,
2013-05-25 23:01:00,64.0,62.0,-100.00,NNE,28,10.0,21.0,92,0.00,,,0.00,0.000000,,2013-05-26 09:01:00,
2013-05-25 23:22:00,64.0,62.0,-100.00,NNE,28,10.0,21.0,92,0.00,,,0.00,0.000000,,2013-05-26 09:22:00,
2013-05-25 23:33:00,64.0,62.0,-100.00,NNE,28,10.0,21.0,92,0.00,,,0.00,0.000000,,2013-05-26 09:33:00,
2013-05-25 23:43:00,64.0,62.0,-100.00,NNE,28,10.0,21.0,92,0.00,,,0.00,0.000000,,2013-05-26 09:43:00,
2013-05-25 23:53:00,64.0,62.0,-100.00,NNE,28,10.0,21.0,92,0.00,,,0.00,0.000000,,2013-05-26 09:53:00,